Time;durP1;ratioP1;P1;durP2;ratioP2;P2;SDS_P1;SDS_P2;PMS_P1;PMS_P2;Temp;Humidity;BMP_temperature;BMP_pressure;BME280_temperature;BME280_humidity;BME280_pressure;Samples;Min_cycle;Max_cycle;Signal;HPM_P1;HPM_P2
2023/01/25 00:00:48;;;;;;;35.83;18.27;;;1.00;99.90;;;;;;5072552;28;20101;-53
2023/01/25 00:03:13;;;;;;;29.20;17.30;;;1.10;99.90;;;;;;5072655;28;20036;-54
2023/01/25 00:05:39;;;;;;;35.80;20.45;;;1.10;99.90;;;;;;5072644;28;20024;-56
2023/01/25 00:08:05;;;;;;;37.40;21.48;;;1.10;99.90;;;;;;5072407;28;20034;-49
2023/01/25 00:10:30;;;;;;;30.98;19.70;;;1.00;99.90;;;;;;5071557;28;20024;-54
2023/01/25 00:12:56;;;;;;;33.72;19.48;;;1.00;99.90;;;;;;5072420;28;20048;-54
2023/01/25 00:15:22;;;;;;;35.47;18.40;;;1.10;99.90;;;;;;5072576;28;20451;-54
2023/01/25 00:17:48;;;;;;;30.88;17.90;;;1.10;99.90;;;;;;5072227;28;20028;-56
2023/01/25 00:20:14;;;;;;;33.00;20.05;;;1.10;99.90;;;;;;5072407;28;20364;-51
2023/01/25 00:22:40;;;;;;;35.15;21.90;;;1.00;99.90;;;;;;5072300;28;20028;-55
2023/01/25 00:25:06;;;;;;;33.95;19.23;;;1.00;99.90;;;;;;5072174;28;20029;-53
2023/01/25 00:27:32;;;;;;;37.70;21.55;;;1.00;99.90;;;;;;5072289;28;20038;-54
2023/01/25 00:29:57;;;;;;;41.00;22.55;;;1.00;99.90;;;;;;5072061;28;20036;-51
2023/01/25 00:32:28;;;;;;;40.10;21.80;;;1.00;99.90;;;;;;5072136;28;20032;-49
2023/01/25 00:34:54;;;;;;;42.92;25.02;;;1.10;99.90;;;;;;5070776;28;20086;-55
2023/01/25 00:37:28;;;;;;;43.78;23.42;;;1.10;99.90;;;;;;5072173;28;20025;-53
2023/01/25 00:39:54;;;;;;;39.67;24.00;;;1.10;99.90;;;;;;5071861;28;20372;-52
2023/01/25 00:42:20;;;;;;;40.50;22.35;;;1.00;99.90;;;;;;5072038;28;20033;-52
2023/01/25 00:44:47;;;;;;;44.15;24.67;;;1.10;99.90;;;;;;5071843;28;20036;-53
2023/01/25 00:47:13;;;;;;;46.85;24.65;;;1.00;99.90;;;;;;5071921;28;20024;-54
2023/01/25 00:49:41;;;;;;;38.05;22.38;;;1.00;99.90;;;;;;5071701;28;20058;-56
2023/01/25 00:52:08;;;;;;;44.60;25.08;;;1.10;99.90;;;;;;5071765;28;20024;-54
2023/01/25 00:54:33;;;;;;;42.65;22.75;;;1.00;99.90;;;;;;5070715;28;20035;-52
2023/01/25 00:56:59;;;;;;;38.75;21.90;;;1.00;99.90;;;;;;5070385;28;20460;-55
2023/01/25 00:59:25;;;;;;;37.38;22.15;;;1.00;99.90;;;;;;5071902;28;20157;-52
2023/01/25 01:01:52;;;;;;;38.85;22.65;;;1.00;99.90;;;;;;5071526;28;20042;-54
2023/01/25 01:04:19;;;;;;;36.60;21.58;;;1.00;99.90;;;;;;5071880;28;20332;-53
2023/01/25 01:06:45;;;;;;;31.05;16.90;;;1.00;99.90;;;;;;5071451;28;20032;-52
2023/01/25 01:09:14;;;;;;;32.10;19.98;;;1.00;99.90;;;;;;5071528;28;20380;-49
2023/01/25 01:11:40;;;;;;;36.17;21.27;;;1.00;99.90;;;;;;5071620;28;20021;-56
2023/01/25 01:14:05;;;;;;;41.75;22.85;;;1.00;99.90;;;;;;5071545;28;20369;-52
2023/01/25 01:16:31;;;;;;;36.22;21.80;;;1.00;99.90;;;;;;5070373;28;20025;-53
2023/01/25 01:18:57;;;;;;;40.60;23.10;;;0.90;99.90;;;;;;5070154;28;20031;-51
2023/01/25 01:21:23;;;;;;;36.38;21.25;;;0.90;99.90;;;;;;5071331;28;20024;-52
2023/01/25 01:23:49;;;;;;;43.28;23.27;;;0.90;99.90;;;;;;5071438;28;20427;-51
2023/01/25 01:26:18;;;;;;;49.33;25.40;;;0.90;99.90;;;;;;5071597;28;20119;-50
2023/01/25 01:28:44;;;;;;;47.40;25.92;;;0.90;99.90;;;;;;5071285;28;20110;-52
2023/01/25 01:31:15;;;;;;;49.13;26.08;;;0.90;99.90;;;;;;5071492;28;20415;-50
2023/01/25 01:33:41;;;;;;;50.80;25.38;;;0.90;99.90;;;;;;5071496;28;20032;-57
2023/01/25 01:36:14;;;;;;;47.88;26.25;;;0.90;99.90;;;;;;5071465;28;20029;-52
2023/01/25 01:38:41;;;;;;;52.45;29.15;;;0.90;99.90;;;;;;5071434;28;20021;-53
2023/01/25 01:41:07;;;;;;;54.20;28.95;;;0.90;99.90;;;;;;5071398;28;20032;-52
2023/01/25 01:43:33;;;;;;;55.70;28.25;;;0.90;99.90;;;;;;5071382;28;20497;-53
2023/01/25 01:46:01;;;;;;;60.50;32.63;;;0.90;99.90;;;;;;5071206;28;20115;-56
2023/01/25 01:48:32;;;;;;;53.95;29.85;;;0.90;99.90;;;;;;5071393;28;20031;-57
2023/01/25 01:51:01;;;;;;;49.53;26.98;;;0.90;99.90;;;;;;5071105;28;20028;-52
2023/01/25 01:53:31;;;;;;;58.10;30.98;;;0.90;99.90;;;;;;5071244;28;20028;-50
2023/01/25 01:56:01;;;;;;;54.72;29.17;;;0.90;99.90;;;;;;5070991;28;20055;-54
2023/01/25 01:58:28;;;;;;;54.28;30.80;;;0.90;99.90;;;;;;5071269;28;20028;-53
2023/01/25 02:00:54;;;;;;;61.85;29.58;;;0.90;99.90;;;;;;5070952;28;20052;-54
2023/01/25 02:03:21;;;;;;;53.22;29.70;;;0.90;99.90;;;;;;5071081;28;20419;-53
2023/01/25 02:06:00;;;;;;;56.53;28.02;;;0.90;99.90;;;;;;5070880;28;20470;-54
2023/01/25 02:08:29;;;;;;;56.75;29.95;;;0.90;99.90;;;;;;5070886;28;20084;-55
2023/01/25 02:10:55;;;;;;;52.35;29.50;;;0.90;99.90;;;;;;5070853;28;20060;-55
2023/01/25 02:13:21;;;;;;;50.42;28.65;;;0.90;99.90;;;;;;5071108;28;20028;-52
2023/01/25 02:15:49;;;;;;;55.92;29.13;;;0.90;99.90;;;;;;5070905;28;20025;-54
2023/01/25 02:18:16;;;;;;;58.20;30.33;;;0.90;99.90;;;;;;5070969;28;20025;-54
2023/01/25 02:20:44;;;;;;;49.45;28.05;;;0.80;99.90;;;;;;5070789;28;20626;-50
2023/01/25 02:23:12;;;;;;;52.80;29.92;;;0.90;99.90;;;;;;5071048;28;20054;-56
2023/01/25 02:25:40;;;;;;;59.30;30.05;;;0.80;99.90;;;;;;5070962;28;20039;-54
2023/01/25 02:28:21;;;;;;;62.00;34.40;;;0.80;99.90;;;;;;5070935;28;20539;-55
2023/01/25 02:30:47;;;;;;;57.53;29.95;;;0.80;99.90;;;;;;5070730;28;20029;-52
2023/01/25 02:33:12;;;;;;;53.20;29.08;;;0.80;99.90;;;;;;5071723;28;20021;-53
2023/01/25 02:35:47;;;;;;;56.10;31.10;;;0.80;99.90;;;;;;5074443;28;20040;-57
2023/01/25 02:38:16;;;;;;;61.45;32.38;;;0.80;99.90;;;;;;5074366;28;20442;-52
2023/01/25 02:40:56;;;;;;;59.83;32.00;;;0.80;99.90;;;;;;5074190;28;20032;-53
2023/01/25 02:43:26;;;;;;;59.70;30.88;;;0.80;99.90;;;;;;5074320;28;20021;-51
2023/01/25 02:46:01;;;;;;;59.35;32.58;;;0.80;99.90;;;;;;5073928;28;20020;-54
2023/01/25 02:48:27;;;;;;;50.15;29.73;;;0.80;99.90;;;;;;5074153;28;20032;-52
2023/01/25 02:50:52;;;;;;;58.33;31.10;;;0.80;99.90;;;;;;5073867;28;20095;-53
2023/01/25 02:53:18;;;;;;;52.78;28.30;;;0.80;99.90;;;;;;5074048;28;20356;-55
2023/01/25 02:55:44;;;;;;;53.78;30.52;;;0.90;99.90;;;;;;5072254;28;20532;-49
2023/01/25 02:58:09;;;;;;;53.78;29.20;;;0.80;99.90;;;;;;5073569;28;20025;-52
2023/01/25 03:00:35;;;;;;;60.47;33.40;;;0.80;99.90;;;;;;5073440;28;20028;-52
2023/01/25 03:03:01;;;;;;;63.97;33.72;;;0.70;99.90;;;;;;5073460;28;20044;-53
2023/01/25 03:05:26;;;;;;;64.13;32.53;;;0.70;99.90;;;;;;5073179;28;20032;-50
2023/01/25 03:07:52;;;;;;;67.93;32.35;;;0.70;99.90;;;;;;5072756;28;20408;-54
2023/01/25 03:10:18;;;;;;;66.63;34.17;;;0.70;99.90;;;;;;5072605;28;20036;-53
2023/01/25 03:12:43;;;;;;;71.35;36.28;;;0.70;99.90;;;;;;5071753;28;20032;-52
2023/01/25 03:15:09;;;;;;;61.35;34.28;;;0.70;99.90;;;;;;5073423;28;20095;-52
2023/01/25 03:17:34;;;;;;;61.10;32.70;;;0.70;99.90;;;;;;5073489;28;20017;-55
2023/01/25 03:20:00;;;;;;;65.82;32.97;;;0.70;99.90;;;;;;5073354;28;20561;-52
2023/01/25 03:22:26;;;;;;;64.97;34.92;;;0.70;99.90;;;;;;5073525;28;20476;-50
2023/01/25 03:24:51;;;;;;;75.75;35.10;;;0.70;99.90;;;;;;5073421;28;20025;-51
2023/01/25 03:27:17;;;;;;;72.63;37.17;;;0.70;99.90;;;;;;5073523;28;20368;-48
2023/01/25 03:29:44;;;;;;;74.00;34.78;;;0.70;99.90;;;;;;5073163;28;20035;-55
2023/01/25 03:32:10;;;;;;;58.47;31.02;;;0.70;99.90;;;;;;5073344;28;20582;-51
2023/01/25 03:34:36;;;;;;;62.33;33.05;;;0.70;99.90;;;;;;5073285;28;20056;-52
2023/01/25 03:37:02;;;;;;;55.10;31.27;;;0.70;99.90;;;;;;5073113;28;20059;-51
2023/01/25 03:39:28;;;;;;;66.47;35.85;;;0.70;99.90;;;;;;5073185;28;20023;-53
2023/01/25 03:41:54;;;;;;;66.95;34.30;;;0.70;99.90;;;;;;5073107;28;20020;-49
2023/01/25 03:44:19;;;;;;;71.30;34.50;;;0.70;99.90;;;;;;5073060;28;20099;-55
2023/01/25 03:50:08;;;;;;;66.13;31.60;;;0.70;99.90;;;;;;5052212;28;20063;-51
2023/01/25 03:52:37;;;;;;;60.83;30.70;;;0.70;99.90;;;;;;5070305;28;20020;-52
2023/01/25 03:55:03;;;;;;;57.53;31.48;;;0.80;99.90;;;;;;5072492;28;20082;-51
2023/01/25 03:57:29;;;;;;;60.80;32.00;;;0.70;99.90;;;;;;5072725;28;20110;-53
2023/01/25 04:00:19;;;;;;;57.20;31.35;;;0.70;99.90;;;;;;5072674;28;20555;-54
2023/01/25 04:02:46;;;;;;;50.88;28.88;;;0.70;99.90;;;;;;5072315;28;20124;-51
2023/01/25 04:05:12;;;;;;;50.90;27.83;;;0.70;99.90;;;;;;5072545;28;20098;-56
2023/01/25 04:07:37;;;;;;;57.83;30.65;;;0.70;99.90;;;;;;5072418;28;20028;-56
2023/01/25 04:10:04;;;;;;;53.20;29.80;;;0.60;99.90;;;;;;5072064;28;20377;-51
2023/01/25 04:12:30;;;;;;;65.18;31.48;;;0.60;99.90;;;;;;5072406;28;20024;-53
2023/01/25 04:14:56;;;;;;;62.90;32.58;;;0.70;99.90;;;;;;5072290;28;20138;-54
2023/01/25 04:17:21;;;;;;;56.47;31.67;;;0.70;99.90;;;;;;5072107;28;20119;-56
2023/01/25 04:19:48;;;;;;;53.15;30.48;;;0.80;99.90;;;;;;5072128;28;20037;-52
2023/01/25 04:22:14;;;;;;;53.17;30.77;;;0.80;99.90;;;;;;5072144;28;20051;-50
2023/01/25 04:24:39;;;;;;;54.13;28.40;;;0.70;99.90;;;;;;5072139;28;20052;-57
2023/01/25 04:27:05;;;;;;;58.33;30.58;;;0.70;99.90;;;;;;5072044;28;20093;-54
2023/01/25 04:29:31;;;;;;;54.75;28.27;;;0.70;99.90;;;;;;5071956;28;20037;-55
2023/01/25 04:31:56;;;;;;;48.28;26.25;;;0.70;99.90;;;;;;5071745;28;20025;-55
2023/01/25 04:34:23;;;;;;;36.17;24.08;;;0.70;99.90;;;;;;5070683;28;20036;-51
2023/01/25 04:36:48;;;;;;;42.15;22.73;;;0.70;99.90;;;;;;5072331;28;20031;-54
2023/01/25 04:39:14;;;;;;;39.60;22.02;;;0.70;99.90;;;;;;5072010;28;20009;-52
2023/01/25 04:41:40;;;;;;;39.70;23.10;;;0.70;99.90;;;;;;5071968;28;20024;-54
2023/01/25 04:44:05;;;;;;;39.30;23.33;;;0.70;99.90;;;;;;5071612;28;20451;-55
2023/01/25 04:46:31;;;;;;;47.60;24.40;;;0.80;99.90;;;;;;5071801;28;20074;-53
2023/01/25 04:48:56;;;;;;;46.22;26.08;;;0.80;99.90;;;;;;5070377;28;20372;-56
2023/01/25 04:51:22;;;;;;;45.88;24.90;;;0.70;99.90;;;;;;5071714;28;20499;-51
2023/01/25 04:53:48;;;;;;;41.33;24.15;;;0.70;99.90;;;;;;5071616;28;20028;-52
2023/01/25 04:56:13;;;;;;;24.38;15.88;;;0.70;99.90;;;;;;5071249;28;20021;-57
2023/01/25 04:58:39;;;;;;;25.98;16.30;;;0.70;99.90;;;;;;5071765;28;20705;-57
2023/01/25 05:01:05;;;;;;;27.77;16.75;;;0.70;99.90;;;;;;5071371;28;20039;-54
2023/01/25 05:03:30;;;;;;;27.35;17.75;;;0.70;99.90;;;;;;5071577;28;20111;-52
2023/01/25 05:05:56;;;;;;;28.13;17.92;;;0.70;99.90;;;;;;5071286;28;20028;-52
2023/01/25 05:08:21;;;;;;;37.90;20.65;;;0.70;99.90;;;;;;5071384;28;20131;-56
2023/01/25 05:10:47;;;;;;;49.70;29.33;;;0.70;99.90;;;;;;5071265;28;20052;-55
2023/01/25 05:13:13;;;;;;;54.40;28.23;;;0.70;99.90;;;;;;5070066;28;20111;-52
2023/01/25 05:15:38;;;;;;;53.00;29.40;;;0.70;99.90;;;;;;5071382;28;20025;-54
2023/01/25 05:18:04;;;;;;;50.90;28.42;;;0.70;99.90;;;;;;5070013;28;20056;-51
2023/01/25 05:20:29;;;;;;;47.90;28.75;;;0.70;99.90;;;;;;5071357;28;20029;-52
2023/01/25 05:22:55;;;;;;;54.65;27.83;;;0.70;99.90;;;;;;5071324;28;20051;-49
2023/01/25 05:28:05;;;;;;;51.67;30.27;;;0.70;99.90;;;;;;5071057;28;20063;-53
2023/01/25 05:30:32;;;;;;;48.53;26.70;;;0.80;99.90;;;;;;5071099;28;20029;-55
2023/01/25 05:32:58;;;;;;;56.97;28.38;;;0.80;99.90;;;;;;5071212;28;20032;-55
2023/01/25 05:35:24;;;;;;;53.22;29.42;;;0.70;99.90;;;;;;5071174;28;20031;-56
2023/01/25 05:37:49;;;;;;;54.03;28.58;;;0.70;99.90;;;;;;5071079;28;20058;-50
2023/01/25 05:40:15;;;;;;;52.72;30.75;;;0.70;99.90;;;;;;5071105;28;20056;-52
2023/01/25 05:42:41;;;;;;;54.38;30.25;;;0.70;99.90;;;;;;5071051;28;20024;-54
2023/01/25 05:45:07;;;;;;;58.92;31.75;;;0.70;99.90;;;;;;5070882;28;20414;-55
2023/01/25 05:47:33;;;;;;;48.45;27.85;;;0.70;99.90;;;;;;5071126;28;20028;-53
2023/01/25 05:49:59;;;;;;;54.22;27.38;;;0.80;99.90;;;;;;5070942;28;20017;-54
2023/01/25 05:52:24;;;;;;;43.05;25.80;;;0.70;99.90;;;;;;5071068;28;20017;-52
2023/01/25 05:54:50;;;;;;;37.28;21.17;;;0.70;99.90;;;;;;5070814;28;20025;-52
2023/01/25 05:57:15;;;;;;;41.60;21.95;;;0.70;99.90;;;;;;5071148;28;20017;-53
2023/01/25 05:59:41;;;;;;;33.22;19.30;;;0.60;99.90;;;;;;5070569;28;20428;-54
2023/01/25 06:02:07;;;;;;;38.00;22.92;;;0.70;99.90;;;;;;5070996;28;20024;-53
2023/01/25 06:04:32;;;;;;;43.65;25.00;;;0.70;99.90;;;;;;5069743;28;20490;-51
2023/01/25 06:06:58;;;;;;;54.33;26.70;;;0.70;99.90;;;;;;5070575;28;20036;-51
2023/01/25 06:09:25;;;;;;;41.22;26.38;;;0.70;99.90;;;;;;5073388;28;20059;-54
2023/01/25 06:11:50;;;;;;;108.70;68.97;;;0.70;99.90;;;;;;5074407;28;20017;-53
2023/01/25 06:14:16;;;;;;;38.13;23.08;;;0.70;99.90;;;;;;5074039;28;20516;-54
2023/01/25 06:16:42;;;;;;;55.10;31.55;;;0.70;99.90;;;;;;5074214;28;20020;-49
2023/01/25 06:19:08;;;;;;;49.05;28.33;;;0.70;99.90;;;;;;5074407;28;20514;-52
2023/01/25 06:21:35;;;;;;;39.35;22.67;;;0.70;99.90;;;;;;5074469;28;20032;-52
2023/01/25 06:24:04;;;;;;;40.80;23.17;;;0.70;99.90;;;;;;5074224;28;20055;-51
2023/01/25 06:26:30;;;;;;;56.35;32.00;;;0.70;99.90;;;;;;5073957;28;20028;-54
2023/01/25 06:28:56;;;;;;;72.28;42.88;;;0.70;99.90;;;;;;5073996;28;20467;-51
2023/01/25 06:31:22;;;;;;;54.53;31.70;;;0.70;99.90;;;;;;5074060;28;20024;-58
2023/01/25 06:33:51;;;;;;;99.40;55.35;;;0.70;99.90;;;;;;5072634;28;20020;-55
2023/01/25 06:36:18;;;;;;;55.92;31.10;;;0.70;99.90;;;;;;5074008;28;20585;-54
2023/01/25 06:38:51;;;;;;;53.10;29.00;;;0.70;99.90;;;;;;5074169;28;20055;-49
2023/01/25 06:41:17;;;;;;;45.80;27.77;;;0.60;99.90;;;;;;5073813;28;20456;-54
2023/01/25 06:43:43;;;;;;;45.05;26.35;;;0.60;99.90;;;;;;5074025;28;20232;-58
2023/01/25 06:46:18;;;;;;;40.08;23.58;;;0.60;99.90;;;;;;5074633;28;20115;-57
2023/01/25 06:48:43;;;;;;;31.75;19.48;;;0.70;99.90;;;;;;5073748;28;20028;-55
2023/01/25 06:51:12;;;;;;;36.35;20.65;;;0.70;99.90;;;;;;5073685;28;20056;-52
2023/01/25 06:53:41;;;;;;;40.30;22.65;;;0.60;99.90;;;;;;5073566;28;20013;-54
2023/01/25 06:56:08;;;;;;;38.58;23.77;;;0.60;99.90;;;;;;5073519;28;20023;-53
2023/01/25 06:58:34;;;;;;;40.00;24.92;;;0.70;99.90;;;;;;5073504;28;20099;-56
2023/01/25 07:01:03;;;;;;;46.63;25.40;;;0.80;99.90;;;;;;5072097;28;20123;-53
2023/01/25 07:03:30;;;;;;;53.45;26.88;;;0.80;99.90;;;;;;5073468;28;20363;-53
2023/01/25 07:06:00;;;;;;;44.35;25.52;;;0.80;99.90;;;;;;5073297;28;20012;-54
2023/01/25 07:08:27;;;;;;;89.55;50.22;;;0.70;99.90;;;;;;5073289;28;20049;-54
2023/01/25 07:10:54;;;;;;;119.97;67.13;;;0.80;99.90;;;;;;5073130;28;20036;-54
2023/01/25 07:13:20;;;;;;;172.30;93.80;;;0.80;99.90;;;;;;5071900;28;20524;-57
2023/01/25 07:15:55;;;;;;;149.50;88.28;;;0.70;99.90;;;;;;5072883;28;20017;-50
2023/01/25 07:18:21;;;;;;;195.85;94.85;;;0.70;99.90;;;;;;5073332;28;20070;-57
2023/01/25 07:20:46;;;;;;;89.55;50.53;;;0.80;99.90;;;;;;5072339;28;20410;-51
2023/01/25 07:23:12;;;;;;;117.90;62.60;;;0.80;99.90;;;;;;5072908;28;20020;-56
2023/01/25 07:25:46;;;;;;;168.60;87.25;;;0.70;99.90;;;;;;5072945;28;20021;-53
2023/01/25 07:28:12;;;;;;;240.07;119.93;;;0.70;99.90;;;;;;5072158;28;20032;-55
2023/01/25 07:30:38;;;;;;;78.90;47.75;;;0.80;99.90;;;;;;5071919;28;20467;-56
2023/01/25 07:33:04;;;;;;;77.18;42.78;;;0.80;99.90;;;;;;5072925;28;20127;-55
2023/01/25 07:35:31;;;;;;;77.60;48.67;;;0.70;99.90;;;;;;5071531;28;20531;-55
2023/01/25 07:37:56;;;;;;;87.88;55.45;;;0.70;99.90;;;;;;5072790;28;20040;-55
2023/01/25 07:40:24;;;;;;;48.03;28.48;;;0.80;99.90;;;;;;5072644;28;20052;-57
2023/01/25 07:42:50;;;;;;;70.53;29.15;;;0.80;99.90;;;;;;5073147;28;20023;-57
2023/01/25 07:45:16;;;;;;;56.60;27.77;;;0.80;99.90;;;;;;5072508;28;20032;-57
2023/01/25 07:47:42;;;;;;;58.22;28.33;;;0.80;99.90;;;;;;5072594;28;20082;-56
2023/01/25 07:50:08;;;;;;;40.58;23.40;;;0.80;99.90;;;;;;5072264;28;20021;-56
2023/01/25 07:52:34;;;;;;;39.92;22.02;;;0.80;99.90;;;;;;5071407;28;20025;-55
2023/01/25 07:54:59;;;;;;;31.27;17.20;;;0.90;99.90;;;;;;5072323;28;20009;-55
2023/01/25 07:57:27;;;;;;;29.98;17.35;;;0.90;99.90;;;;;;5072475;28;20024;-58
2023/01/25 07:59:52;;;;;;;22.88;15.05;;;0.90;99.90;;;;;;5072307;28;20325;-56
2023/01/25 08:02:18;;;;;;;240.63;107.72;;;1.00;99.90;;;;;;5072392;28;20012;-52
2023/01/25 08:04:44;;;;;;;136.02;79.47;;;1.00;99.90;;;;;;5071934;28;20085;-54
2023/01/25 08:07:10;;;;;;;70.22;33.28;;;1.00;99.90;;;;;;5072311;28;20111;-58
2023/01/25 08:09:36;;;;;;;42.90;23.17;;;1.10;99.90;;;;;;5070635;28;20040;-57
2023/01/25 08:12:02;;;;;;;44.33;23.67;;;1.20;99.90;;;;;;5071969;28;20381;-57
2023/01/25 08:14:27;;;;;;;45.38;25.70;;;1.00;99.90;;;;;;5072254;28;20013;-57
2023/01/25 08:16:53;;;;;;;55.75;30.17;;;1.00;99.90;;;;;;5071978;28;20032;-56
2023/01/25 08:19:20;;;;;;;54.08;29.33;;;1.00;99.90;;;;;;5071927;28;20028;-56
2023/01/25 08:21:46;;;;;;;47.40;29.27;;;1.00;99.90;;;;;;5071724;28;20017;-55
2023/01/25 08:24:12;;;;;;;43.85;26.95;;;1.00;99.90;;;;;;5071959;28;20093;-56
2023/01/25 08:26:38;;;;;;;45.88;26.73;;;1.00;99.90;;;;;;5071972;28;20023;-56
2023/01/25 08:29:04;;;;;;;41.45;25.27;;;1.00;99.90;;;;;;5071481;28;20016;-56
2023/01/25 08:31:32;;;;;;;46.38;25.15;;;1.00;99.90;;;;;;5069908;28;20368;-58
2023/01/25 08:34:04;;;;;;;50.47;25.25;;;1.00;99.90;;;;;;5071726;28;20537;-54
2023/01/25 08:36:30;;;;;;;46.97;28.80;;;1.00;99.90;;;;;;5071866;28;20029;-55
2023/01/25 08:39:01;;;;;;;49.47;26.63;;;0.90;99.90;;;;;;5071996;28;20020;-57
2023/01/25 08:41:28;;;;;;;52.10;30.63;;;0.80;99.90;;;;;;5071643;28;20097;-52
2023/01/25 08:43:55;;;;;;;55.90;29.08;;;0.80;99.90;;;;;;5071426;28;20020;-53
2023/01/25 08:46:22;;;;;;;53.45;29.15;;;0.90;99.90;;;;;;5071472;28;20087;-53
2023/01/25 08:48:51;;;;;;;47.50;26.70;;;0.90;99.90;;;;;;5071343;28;20016;-52
2023/01/25 08:51:17;;;;;;;41.22;25.13;;;0.90;99.90;;;;;;5071279;28;20071;-56
2023/01/25 08:53:43;;;;;;;41.97;25.48;;;0.90;99.90;;;;;;5071258;28;20055;-56
2023/01/25 08:56:11;;;;;;;42.80;23.98;;;0.90;99.90;;;;;;5071367;28;20567;-54
2023/01/25 08:58:38;;;;;;;34.83;23.17;;;1.00;99.90;;;;;;5071330;28;20021;-56
2023/01/25 09:01:06;;;;;;;40.22;22.88;;;1.10;99.90;;;;;;5071200;28;20039;-58
2023/01/25 09:03:41;;;;;;;47.35;28.80;;;1.20;99.90;;;;;;5071373;28;20032;-54
2023/01/25 09:06:07;;;;;;;53.53;29.05;;;1.20;99.90;;;;;;5071437;28;20691;-54
2023/01/25 09:08:33;;;;;;;53.17;33.65;;;1.20;99.90;;;;;;5071162;28;20040;-56
2023/01/25 09:11:01;;;;;;;53.05;29.65;;;1.20;99.90;;;;;;5071016;28;20525;-57
2023/01/25 09:13:26;;;;;;;58.38;32.85;;;1.10;99.90;;;;;;5071228;28;20100;-56
2023/01/25 09:16:05;;;;;;;65.82;36.40;;;1.10;99.90;;;;;;5071136;28;20123;-59
2023/01/25 09:18:32;;;;;;;57.33;33.20;;;1.10;99.90;;;;;;5071207;28;20017;-59
2023/01/25 09:20:58;;;;;;;49.58;30.65;;;1.10;99.90;;;;;;5070984;28;20020;-59
2023/01/25 09:23:24;;;;;;;47.70;27.92;;;1.00;99.90;;;;;;5071314;28;20473;-58
2023/01/25 09:26:00;;;;;;;57.63;29.88;;;1.00;99.90;;;;;;5070894;28;20104;-59
2023/01/25 09:28:28;;;;;;;54.00;29.92;;;1.00;99.90;;;;;;5071149;28;20028;-60
2023/01/25 09:30:56;;;;;;;47.17;27.35;;;1.10;99.90;;;;;;5070913;28;20410;-59
2023/01/25 09:33:34;;;;;;;56.20;29.02;;;1.10;99.90;;;;;;5071256;28;20391;-59
2023/01/25 09:36:00;;;;;;;47.95;27.58;;;1.10;99.90;;;;;;5071414;28;20028;-59
2023/01/25 09:38:26;;;;;;;51.65;29.52;;;1.00;99.90;;;;;;5070267;28;20408;-60
2023/01/25 09:41:21;;;;;;;51.10;27.70;;;0.90;99.90;;;;;;5070531;28;20109;-59
2023/01/25 09:44:05;;;;;;;57.90;30.10;;;0.90;99.90;;;;;;5073943;28;20361;-59
2023/01/25 09:46:48;;;;;;;55.67;29.92;;;0.90;99.90;;;;;;5074731;28;20451;-57
2023/01/25 09:49:32;;;;;;;53.85;30.20;;;0.90;99.90;;;;;;5075123;28;20042;-57
2023/01/25 09:52:09;;;;;;;50.03;28.50;;;0.90;99.90;;;;;;5075108;28;20028;-60
2023/01/25 09:54:43;;;;;;;50.08;29.13;;;1.00;99.90;;;;;;5074373;28;20387;-58
2023/01/25 09:57:25;;;;;;;54.50;28.15;;;1.10;99.90;;;;;;5075584;28;20023;-58
2023/01/25 09:59:52;;;;;;;47.17;25.80;;;1.00;99.90;;;;;;5074403;28;20028;-59
2023/01/25 10:02:37;;;;;;;52.22;29.95;;;1.00;99.90;;;;;;5074729;28;20025;-59
2023/01/25 10:05:26;;;;;;;54.63;30.30;;;0.90;99.90;;;;;;5074726;28;20017;-57
2023/01/25 10:07:57;;;;;;;57.40;29.85;;;0.90;99.90;;;;;;5074230;28;20040;-57
2023/01/25 10:10:35;;;;;;;57.60;28.38;;;1.00;99.90;;;;;;5074473;28;20033;-59
2023/01/25 10:13:04;;;;;;;59.47;30.20;;;1.00;99.90;;;;;;5074372;28;20096;-59
2023/01/25 10:15:37;;;;;;;54.67;32.10;;;1.00;99.90;;;;;;5074321;28;20016;-59
2023/01/25 10:18:28;;;;;;;55.60;30.80;;;1.00;99.90;;;;;;5073980;28;20533;-59
2023/01/25 10:21:17;;;;;;;51.20;30.02;;;0.90;99.90;;;;;;5074000;28;20047;-58
2023/01/25 10:24:12;;;;;;;52.25;28.25;;;0.90;99.90;;;;;;5074065;28;20020;-57
2023/01/25 10:26:41;;;;;;;56.00;31.58;;;0.90;99.90;;;;;;5071957;28;20460;-58
2023/01/25 10:29:35;;;;;;;59.90;30.95;;;0.90;99.90;;;;;;5073796;28;20035;-56
2023/01/25 10:32:25;;;;;;;53.85;30.08;;;0.90;99.90;;;;;;5074357;28;20049;-53
2023/01/25 10:34:53;;;;;;;56.95;31.88;;;1.00;99.90;;;;;;5074031;28;20029;-55
2023/01/25 10:37:23;;;;;;;56.90;30.58;;;1.00;99.90;;;;;;5072651;28;20028;-58
2023/01/25 10:40:11;;;;;;;57.58;31.88;;;0.90;99.90;;;;;;5073749;28;20020;-59
2023/01/25 10:43:01;;;;;;;62.10;31.65;;;0.80;99.90;;;;;;5074050;28;20029;-58
2023/01/25 10:45:27;;;;;;;56.60;29.00;;;0.90;99.90;;;;;;5073987;28;20032;-58
2023/01/25 10:48:02;;;;;;;64.60;31.05;;;0.80;99.90;;;;;;5074279;28;20082;-57
2023/01/25 10:50:45;;;;;;;60.35;30.67;;;0.80;99.90;;;;;;5073576;28;20025;-59
2023/01/25 10:53:31;;;;;;;54.50;30.33;;;0.80;99.90;;;;;;5052193;28;20021;-59
2023/01/25 10:56:09;;;;;;;57.13;29.13;;;0.90;99.90;;;;;;5051820;28;20463;-58
2023/01/25 10:58:44;;;;;;;54.55;30.15;;;1.00;99.90;;;;;;5053558;28;20459;-58
2023/01/25 11:01:23;;;;;;;61.75;29.25;;;1.00;99.90;;;;;;5053332;28;20029;-58
2023/01/25 11:03:49;;;;;;;57.10;28.05;;;0.90;99.90;;;;;;5052778;28;20483;-59
2023/01/25 11:06:30;;;;;;;61.33;32.30;;;1.00;99.90;;;;;;5053324;28;20040;-59
2023/01/25 11:08:55;;;;;;;68.20;29.90;;;0.90;99.90;;;;;;5052933;28;20041;-59
2023/01/25 11:11:28;;;;;;;63.10;31.98;;;0.80;99.90;;;;;;5054116;28;20029;-56
2023/01/25 11:14:17;;;;;;;55.72;29.55;;;0.80;99.90;;;;;;5053703;28;20368;-59
2023/01/25 11:16:49;;;;;;;62.13;30.65;;;0.80;99.90;;;;;;5053013;28;20029;-55
2023/01/25 11:19:34;;;;;;;67.80;31.05;;;0.80;99.90;;;;;;5053292;28;20103;-54
2023/01/25 11:22:03;;;;;;;65.82;30.92;;;0.80;99.90;;;;;;5053019;28;20040;-57
2023/01/25 11:24:34;;;;;;;66.88;32.38;;;0.70;99.90;;;;;;5051880;28;20029;-59
2023/01/25 11:27:24;;;;;;;71.68;33.60;;;0.80;99.90;;;;;;5052933;28;20033;-55
2023/01/25 11:30:05;;;;;;;63.97;30.90;;;0.80;99.90;;;;;;5052379;28;20049;-58
2023/01/25 11:32:31;;;;;;;52.38;26.83;;;0.80;99.90;;;;;;5052950;28;20057;-57
2023/01/25 11:34:57;;;;;;;68.30;32.05;;;0.90;99.90;;;;;;5052731;28;20021;-56
2023/01/25 11:37:52;;;;;;;60.50;27.88;;;0.80;99.90;;;;;;5052868;28;20028;-58
2023/01/25 11:40:38;;;;;;;57.45;28.98;;;0.80;99.90;;;;;;5059569;28;20503;-54
2023/01/25 11:43:28;;;;;;;52.13;26.95;;;0.90;99.90;;;;;;5052618;28;20071;-59
2023/01/25 11:46:09;;;;;;;55.10;28.52;;;0.90;99.90;;;;;;5059243;28;20024;-53
2023/01/25 11:48:54;;;;;;;68.45;40.70;;;0.90;99.90;;;;;;5062094;28;20100;-56
2023/01/25 11:51:41;;;;;;;54.28;27.25;;;0.90;99.90;;;;;;5060725;28;20032;-59
2023/01/25 11:54:29;;;;;;;54.30;29.23;;;0.90;99.90;;;;;;5061967;28;20024;-58
2023/01/25 11:57:22;;;;;;;52.30;28.08;;;0.90;99.90;;;;;;5081894;28;20072;-55
2023/01/25 12:00:23;;;;;;;51.63;27.17;;;1.00;99.90;;;;;;5081134;28;20034;-56
2023/01/25 12:02:58;;;;;;;52.88;29.73;;;0.90;99.90;;;;;;5081345;28;20020;-56
2023/01/25 12:05:33;;;;;;;54.42;27.63;;;0.80;99.90;;;;;;5081234;28;20103;-56
2023/01/25 12:08:13;;;;;;;52.97;29.85;;;0.80;99.90;;;;;;5080614;28;20020;-59
2023/01/25 12:10:53;;;;;;;50.42;27.95;;;0.90;99.90;;;;;;5081151;28;20028;-59
2023/01/25 12:13:39;;;;;;;58.10;29.42;;;1.00;99.90;;;;;;5081164;28;20073;-53
2023/01/25 12:16:33;;;;;;;53.15;29.00;;;0.90;99.90;;;;;;5081064;28;20410;-56
2023/01/25 12:19:13;;;;;;;56.85;28.75;;;0.90;99.90;;;;;;5060482;28;20017;-58
2023/01/25 12:21:50;;;;;;;60.22;27.45;;;0.90;99.90;;;;;;5060867;28;20024;-56
2023/01/25 12:24:25;;;;;;;55.97;30.00;;;0.90;99.90;;;;;;5080573;28;20052;-58
2023/01/25 12:27:09;;;;;;;57.03;30.45;;;1.00;99.90;;;;;;5078185;28;20031;-57
2023/01/25 12:29:43;;;;;;;59.22;31.33;;;1.00;99.90;;;;;;5060517;28;20036;-59
2023/01/25 12:32:30;;;;;;;57.53;29.73;;;1.00;99.90;;;;;;5060657;28;20078;-59
2023/01/25 12:35:31;;;;;;;45.90;25.65;;;1.10;99.90;;;;;;5060363;28;20066;-59
2023/01/25 12:38:02;;;;;;;53.28;25.40;;;1.00;99.90;;;;;;5058851;28;20357;-56
2023/01/25 12:40:40;;;;;;;48.67;26.08;;;1.00;99.90;;;;;;5061226;28;20082;-60
2023/01/25 12:43:14;;;;;;;40.80;22.90;;;1.10;99.90;;;;;;5062642;28;20067;-57
2023/01/25 12:45:44;;;;;;;40.90;21.08;;;1.00;99.90;;;;;;5081011;28;22632;-60
2023/01/25 12:48:31;;;;;;;37.20;20.35;;;1.00;99.90;;;;;;5065828;28;20032;-54
2023/01/25 12:50:58;;;;;;;34.95;21.02;;;1.00;99.90;;;;;;5080204;28;20035;-56
2023/01/25 12:53:40;;;;;;;60.22;29.50;;;1.00;99.90;;;;;;5074043;28;20079;-58
2023/01/25 12:56:08;;;;;;;42.45;20.42;;;1.00;99.90;;;;;;5071112;28;20021;-57